sensor_id;sensor_type;location;lat;lon;timestamp;P1;durP1;ratioP1;P2;durP2;ratioP2
48849;SDS011;63210;53.370;6.770;2022-11-14T00:02:22;26.83;;;13.43;;
48849;SDS011;63210;53.370;6.770;2022-11-14T00:04:47;32.40;;;15.57;;
48849;SDS011;63210;53.370;6.770;2022-11-14T00:07:16;31.17;;;16.02;;
48849;SDS011;63210;53.370;6.770;2022-11-14T00:09:44;31.98;;;16.85;;
48849;SDS011;63210;53.370;6.770;2022-11-14T00:12:10;28.83;;;15.68;;
48849;SDS011;63210;53.370;6.770;2022-11-14T00:14:35;29.60;;;14.05;;
48849;SDS011;63210;53.370;6.770;2022-11-14T00:17:01;35.08;;;18.45;;
48849;SDS011;63210;53.370;6.770;2022-11-14T00:19:26;38.78;;;18.92;;
48849;SDS011;63210;53.370;6.770;2022-11-14T00:21:55;24.88;;;13.52;;
48849;SDS011;63210;53.370;6.770;2022-11-14T00:24:20;37.65;;;21.00;;
48849;SDS011;63210;53.370;6.770;2022-11-14T00:26:45;21.92;;;11.68;;
48849;SDS011;63210;53.370;6.770;2022-11-14T00:29:17;32.28;;;18.55;;
48849;SDS011;63210;53.370;6.770;2022-11-14T00:31:45;35.85;;;21.10;;
48849;SDS011;63210;53.370;6.770;2022-11-14T00:34:10;41.58;;;21.75;;
48849;SDS011;63210;53.370;6.770;2022-11-14T00:36:35;32.95;;;19.35;;
48849;SDS011;63210;53.370;6.770;2022-11-14T00:39:01;38.38;;;22.02;;
48849;SDS011;63210;53.370;6.770;2022-11-14T00:41:26;37.85;;;22.85;;
48849;SDS011;63210;53.370;6.770;2022-11-14T00:43:54;39.58;;;22.58;;
48849;SDS011;63210;53.370;6.770;2022-11-14T00:46:22;36.83;;;19.67;;
48849;SDS011;63210;53.370;6.770;2022-11-14T00:48:48;35.97;;;19.45;;
48849;SDS011;63210;53.370;6.770;2022-11-14T00:51:13;33.42;;;18.25;;
48849;SDS011;63210;53.370;6.770;2022-11-14T00:53:38;39.53;;;22.65;;
48849;SDS011;63210;53.370;6.770;2022-11-14T00:56:04;39.53;;;24.27;;
48849;SDS011;63210;53.370;6.770;2022-11-14T00:58:29;46.08;;;25.92;;
48849;SDS011;63210;53.370;6.770;2022-11-14T01:00:54;41.78;;;24.95;;
48849;SDS011;63210;53.370;6.770;2022-11-14T01:03:22;37.72;;;21.00;;
48849;SDS011;63210;53.370;6.770;2022-11-14T01:05:48;43.80;;;26.85;;
48849;SDS011;63210;53.370;6.770;2022-11-14T01:08:23;41.40;;;25.50;;
48849;SDS011;63210;53.370;6.770;2022-11-14T01:10:49;43.80;;;24.83;;
48849;SDS011;63210;53.370;6.770;2022-11-14T01:13:15;33.22;;;19.40;;
48849;SDS011;63210;53.370;6.770;2022-11-14T01:15:44;49.58;;;28.52;;
48849;SDS011;63210;53.370;6.770;2022-11-14T01:18:13;44.88;;;25.65;;
48849;SDS011;63210;53.370;6.770;2022-11-14T01:20:42;38.67;;;19.48;;
48849;SDS011;63210;53.370;6.770;2022-11-14T01:23:08;47.20;;;27.50;;
48849;SDS011;63210;53.370;6.770;2022-11-14T01:25:37;41.83;;;25.60;;
48849;SDS011;63210;53.370;6.770;2022-11-14T01:28:12;46.58;;;26.05;;
48849;SDS011;63210;53.370;6.770;2022-11-14T01:30:38;45.65;;;27.10;;
48849;SDS011;63210;53.370;6.770;2022-11-14T01:33:04;45.00;;;26.52;;
48849;SDS011;63210;53.370;6.770;2022-11-14T01:35:30;42.63;;;23.08;;
48849;SDS011;63210;53.370;6.770;2022-11-14T01:37:55;46.10;;;26.35;;
48849;SDS011;63210;53.370;6.770;2022-11-14T01:40:21;46.70;;;25.60;;
48849;SDS011;63210;53.370;6.770;2022-11-14T01:48:17;47.88;;;27.00;;
48849;SDS011;63210;53.370;6.770;2022-11-14T01:50:44;46.75;;;26.60;;
48849;SDS011;63210;53.370;6.770;2022-11-14T01:53:10;42.08;;;23.05;;
48849;SDS011;63210;53.370;6.770;2022-11-14T01:55:40;47.38;;;27.83;;
48849;SDS011;63210;53.370;6.770;2022-11-14T01:58:05;44.05;;;22.23;;
48849;SDS011;63210;53.370;6.770;2022-11-14T02:00:34;44.65;;;25.70;;
48849;SDS011;63210;53.370;6.770;2022-11-14T02:02:59;45.50;;;27.23;;
48849;SDS011;63210;53.370;6.770;2022-11-14T02:05:25;45.05;;;26.83;;
48849;SDS011;63210;53.370;6.770;2022-11-14T02:07:53;48.88;;;27.70;;
48849;SDS011;63210;53.370;6.770;2022-11-14T02:10:21;46.17;;;26.15;;
48849;SDS011;63210;53.370;6.770;2022-11-14T02:12:49;51.53;;;27.75;;
48849;SDS011;63210;53.370;6.770;2022-11-14T02:15:17;49.92;;;27.33;;
48849;SDS011;63210;53.370;6.770;2022-11-14T02:17:45;47.80;;;26.73;;
48849;SDS011;63210;53.370;6.770;2022-11-14T02:20:16;43.78;;;24.35;;
48849;SDS011;63210;53.370;6.770;2022-11-14T02:22:48;47.17;;;25.10;;
48849;SDS011;63210;53.370;6.770;2022-11-14T02:25:19;39.40;;;21.45;;
48849;SDS011;63210;53.370;6.770;2022-11-14T02:27:45;47.60;;;27.38;;
48849;SDS011;63210;53.370;6.770;2022-11-14T02:30:15;48.72;;;26.25;;
48849;SDS011;63210;53.370;6.770;2022-11-14T02:32:41;50.20;;;26.48;;
48849;SDS011;63210;53.370;6.770;2022-11-14T02:35:06;47.75;;;26.17;;
48849;SDS011;63210;53.370;6.770;2022-11-14T02:37:32;46.92;;;27.17;;
48849;SDS011;63210;53.370;6.770;2022-11-14T02:40:00;47.08;;;26.08;;
48849;SDS011;63210;53.370;6.770;2022-11-14T02:42:26;46.83;;;27.48;;
48849;SDS011;63210;53.370;6.770;2022-11-14T02:44:51;42.72;;;25.52;;
48849;SDS011;63210;53.370;6.770;2022-11-14T02:47:17;46.42;;;26.98;;
48849;SDS011;63210;53.370;6.770;2022-11-14T02:49:50;48.50;;;25.58;;
48849;SDS011;63210;53.370;6.770;2022-11-14T02:52:15;45.50;;;25.17;;
48849;SDS011;63210;53.370;6.770;2022-11-14T02:54:47;48.42;;;27.15;;
48849;SDS011;63210;53.370;6.770;2022-11-14T02:57:12;47.95;;;25.35;;
48849;SDS011;63210;53.370;6.770;2022-11-14T02:59:37;50.20;;;27.30;;
48849;SDS011;63210;53.370;6.770;2022-11-14T03:02:03;47.70;;;26.67;;
48849;SDS011;63210;53.370;6.770;2022-11-14T03:04:37;48.35;;;27.92;;
48849;SDS011;63210;53.370;6.770;2022-11-14T03:07:02;52.83;;;28.73;;
48849;SDS011;63210;53.370;6.770;2022-11-14T03:09:27;51.05;;;27.35;;
48849;SDS011;63210;53.370;6.770;2022-11-14T03:11:53;51.63;;;26.83;;
48849;SDS011;63210;53.370;6.770;2022-11-14T03:14:19;49.28;;;27.60;;
48849;SDS011;63210;53.370;6.770;2022-11-14T03:16:46;51.92;;;29.25;;
48849;SDS011;63210;53.370;6.770;2022-11-14T03:19:17;54.00;;;28.95;;
48849;SDS011;63210;53.370;6.770;2022-11-14T03:21:43;54.95;;;29.63;;
48849;SDS011;63210;53.370;6.770;2022-11-14T03:24:11;58.05;;;30.67;;
48849;SDS011;63210;53.370;6.770;2022-11-14T03:26:37;52.42;;;29.50;;
48849;SDS011;63210;53.370;6.770;2022-11-14T03:29:02;56.50;;;31.15;;
48849;SDS011;63210;53.370;6.770;2022-11-14T03:31:28;51.63;;;30.60;;
48849;SDS011;63210;53.370;6.770;2022-11-14T03:33:53;56.63;;;30.50;;
48849;SDS011;63210;53.370;6.770;2022-11-14T03:36:19;58.08;;;31.13;;
48849;SDS011;63210;53.370;6.770;2022-11-14T03:38:46;47.28;;;24.80;;
48849;SDS011;63210;53.370;6.770;2022-11-14T03:41:12;43.85;;;23.55;;
48849;SDS011;63210;53.370;6.770;2022-11-14T03:43:38;55.88;;;31.52;;
48849;SDS011;63210;53.370;6.770;2022-11-14T03:46:09;53.67;;;31.08;;
48849;SDS011;63210;53.370;6.770;2022-11-14T03:48:37;55.95;;;31.73;;
48849;SDS011;63210;53.370;6.770;2022-11-14T03:51:05;51.42;;;28.55;;
48849;SDS011;63210;53.370;6.770;2022-11-14T03:53:39;47.67;;;28.55;;
48849;SDS011;63210;53.370;6.770;2022-11-14T03:56:05;45.83;;;25.30;;
48849;SDS011;63210;53.370;6.770;2022-11-14T03:58:30;52.58;;;30.55;;
48849;SDS011;63210;53.370;6.770;2022-11-14T04:00:56;54.75;;;32.40;;
48849;SDS011;63210;53.370;6.770;2022-11-14T04:03:21;47.70;;;27.27;;
48849;SDS011;63210;53.370;6.770;2022-11-14T04:05:47;52.53;;;29.90;;
48849;SDS011;63210;53.370;6.770;2022-11-14T04:08:16;51.58;;;29.40;;
48849;SDS011;63210;53.370;6.770;2022-11-14T04:10:45;53.85;;;33.58;;
48849;SDS011;63210;53.370;6.770;2022-11-14T04:13:13;49.75;;;27.67;;
48849;SDS011;63210;53.370;6.770;2022-11-14T04:15:40;52.53;;;32.65;;
48849;SDS011;63210;53.370;6.770;2022-11-14T04:18:05;53.58;;;30.42;;
48849;SDS011;63210;53.370;6.770;2022-11-14T04:20:34;46.65;;;26.60;;
48849;SDS011;63210;53.370;6.770;2022-11-14T04:22:59;46.00;;;28.13;;
48849;SDS011;63210;53.370;6.770;2022-11-14T04:25:24;49.70;;;31.25;;
48849;SDS011;63210;53.370;6.770;2022-11-14T04:27:50;53.55;;;33.10;;
48849;SDS011;63210;53.370;6.770;2022-11-14T04:30:15;44.92;;;28.10;;
48849;SDS011;63210;53.370;6.770;2022-11-14T04:32:40;48.35;;;29.02;;
48849;SDS011;63210;53.370;6.770;2022-11-14T04:35:09;51.03;;;30.65;;
48849;SDS011;63210;53.370;6.770;2022-11-14T04:37:34;49.05;;;29.08;;
48849;SDS011;63210;53.370;6.770;2022-11-14T04:40:02;53.53;;;31.27;;
48849;SDS011;63210;53.370;6.770;2022-11-14T04:42:28;52.97;;;29.33;;
48849;SDS011;63210;53.370;6.770;2022-11-14T04:44:53;53.35;;;35.15;;
48849;SDS011;63210;53.370;6.770;2022-11-14T04:47:20;51.20;;;30.77;;
48849;SDS011;63210;53.370;6.770;2022-11-14T04:49:45;49.65;;;30.17;;
48849;SDS011;63210;53.370;6.770;2022-11-14T04:52:13;55.05;;;33.72;;
48849;SDS011;63210;53.370;6.770;2022-11-14T04:54:38;48.25;;;29.17;;
48849;SDS011;63210;53.370;6.770;2022-11-14T04:57:06;51.75;;;32.13;;
48849;SDS011;63210;53.370;6.770;2022-11-14T04:59:32;51.22;;;29.40;;
48849;SDS011;63210;53.370;6.770;2022-11-14T05:02:02;46.08;;;28.90;;
48849;SDS011;63210;53.370;6.770;2022-11-14T05:04:27;46.58;;;29.88;;
48849;SDS011;63210;53.370;6.770;2022-11-14T05:06:53;44.00;;;25.92;;
48849;SDS011;63210;53.370;6.770;2022-11-14T05:09:21;44.50;;;27.63;;
48849;SDS011;63210;53.370;6.770;2022-11-14T05:11:46;42.72;;;25.70;;
48849;SDS011;63210;53.370;6.770;2022-11-14T05:14:12;47.15;;;28.58;;
48849;SDS011;63210;53.370;6.770;2022-11-14T05:16:37;39.70;;;20.25;;
48849;SDS011;63210;53.370;6.770;2022-11-14T05:19:02;46.03;;;27.67;;
48849;SDS011;63210;53.370;6.770;2022-11-14T05:21:27;36.45;;;21.10;;
48849;SDS011;63210;53.370;6.770;2022-11-14T05:23:53;47.95;;;29.60;;
48849;SDS011;63210;53.370;6.770;2022-11-14T05:26:18;50.45;;;26.98;;
48849;SDS011;63210;53.370;6.770;2022-11-14T05:28:44;56.65;;;32.95;;
48849;SDS011;63210;53.370;6.770;2022-11-14T05:31:11;52.45;;;30.98;;
48849;SDS011;63210;53.370;6.770;2022-11-14T05:33:43;49.75;;;31.55;;
48849;SDS011;63210;53.370;6.770;2022-11-14T05:36:13;53.88;;;30.15;;
48849;SDS011;63210;53.370;6.770;2022-11-14T05:38:38;51.42;;;28.92;;
48849;SDS011;63210;53.370;6.770;2022-11-14T05:41:07;55.05;;;29.80;;
48849;SDS011;63210;53.370;6.770;2022-11-14T05:43:33;54.55;;;30.42;;
48849;SDS011;63210;53.370;6.770;2022-11-14T05:46:02;55.80;;;31.10;;
48849;SDS011;63210;53.370;6.770;2022-11-14T05:48:27;54.75;;;32.13;;
48849;SDS011;63210;53.370;6.770;2022-11-14T05:50:59;53.58;;;31.02;;
48849;SDS011;63210;53.370;6.770;2022-11-14T05:53:28;46.22;;;26.02;;
48849;SDS011;63210;53.370;6.770;2022-11-14T05:56:00;52.40;;;28.83;;
48849;SDS011;63210;53.370;6.770;2022-11-14T05:58:26;50.63;;;30.17;;
48849;SDS011;63210;53.370;6.770;2022-11-14T06:01:01;56.63;;;33.88;;
48849;SDS011;63210;53.370;6.770;2022-11-14T06:03:35;55.60;;;32.42;;
48849;SDS011;63210;53.370;6.770;2022-11-14T06:06:12;54.72;;;29.45;;
48849;SDS011;63210;53.370;6.770;2022-11-14T06:08:37;59.15;;;34.35;;
48849;SDS011;63210;53.370;6.770;2022-11-14T06:11:10;57.42;;;32.55;;
48849;SDS011;63210;53.370;6.770;2022-11-14T06:13:36;58.13;;;33.22;;
48849;SDS011;63210;53.370;6.770;2022-11-14T06:16:05;59.35;;;33.60;;
48849;SDS011;63210;53.370;6.770;2022-11-14T06:18:31;42.78;;;23.13;;
48849;SDS011;63210;53.370;6.770;2022-11-14T06:21:13;53.45;;;29.08;;
48849;SDS011;63210;53.370;6.770;2022-11-14T06:23:38;45.75;;;22.52;;
48849;SDS011;63210;53.370;6.770;2022-11-14T06:26:05;55.85;;;32.53;;
48849;SDS011;63210;53.370;6.770;2022-11-14T06:28:34;49.58;;;26.80;;
48849;SDS011;63210;53.370;6.770;2022-11-14T06:31:04;53.88;;;31.10;;
48849;SDS011;63210;53.370;6.770;2022-11-14T06:33:33;52.42;;;29.77;;
48849;SDS011;63210;53.370;6.770;2022-11-14T06:35:59;61.65;;;33.78;;
48849;SDS011;63210;53.370;6.770;2022-11-14T06:38:25;55.90;;;29.00;;
48849;SDS011;63210;53.370;6.770;2022-11-14T06:40:51;54.13;;;28.88;;
48849;SDS011;63210;53.370;6.770;2022-11-14T06:43:19;49.67;;;28.02;;
48849;SDS011;63210;53.370;6.770;2022-11-14T06:45:44;51.80;;;28.33;;
48849;SDS011;63210;53.370;6.770;2022-11-14T06:48:10;54.10;;;31.38;;
48849;SDS011;63210;53.370;6.770;2022-11-14T06:50:40;57.25;;;30.88;;
48849;SDS011;63210;53.370;6.770;2022-11-14T06:53:08;52.75;;;30.17;;
48849;SDS011;63210;53.370;6.770;2022-11-14T06:55:34;50.67;;;28.30;;
48849;SDS011;63210;53.370;6.770;2022-11-14T06:58:02;49.20;;;28.17;;
48849;SDS011;63210;53.370;6.770;2022-11-14T07:00:31;56.10;;;28.77;;
48849;SDS011;63210;53.370;6.770;2022-11-14T07:02:57;51.88;;;28.77;;
48849;SDS011;63210;53.370;6.770;2022-11-14T07:05:25;56.65;;;31.88;;
48849;SDS011;63210;53.370;6.770;2022-11-14T07:07:50;55.17;;;30.35;;
48849;SDS011;63210;53.370;6.770;2022-11-14T07:10:18;54.83;;;28.25;;
48849;SDS011;63210;53.370;6.770;2022-11-14T07:12:47;51.10;;;27.58;;
48849;SDS011;63210;53.370;6.770;2022-11-14T07:15:18;45.03;;;23.85;;
48849;SDS011;63210;53.370;6.770;2022-11-14T07:17:49;57.50;;;28.98;;
48849;SDS011;63210;53.370;6.770;2022-11-14T07:20:14;57.58;;;28.70;;
48849;SDS011;63210;53.370;6.770;2022-11-14T07:22:49;60.53;;;29.48;;
48849;SDS011;63210;53.370;6.770;2022-11-14T07:25:15;54.40;;;27.35;;
48849;SDS011;63210;53.370;6.770;2022-11-14T07:27:40;51.08;;;27.35;;
48849;SDS011;63210;53.370;6.770;2022-11-14T07:30:07;56.03;;;25.45;;
48849;SDS011;63210;53.370;6.770;2022-11-14T07:32:35;57.35;;;32.03;;
48849;SDS011;63210;53.370;6.770;2022-11-14T07:35:00;52.35;;;27.95;;
48849;SDS011;63210;53.370;6.770;2022-11-14T07:37:28;56.03;;;28.92;;
48849;SDS011;63210;53.370;6.770;2022-11-14T07:40:06;52.22;;;27.75;;
48849;SDS011;63210;53.370;6.770;2022-11-14T07:42:37;61.00;;;32.53;;
48849;SDS011;63210;53.370;6.770;2022-11-14T07:45:11;60.20;;;34.60;;
48849;SDS011;63210;53.370;6.770;2022-11-14T07:47:36;54.53;;;25.85;;
48849;SDS011;63210;53.370;6.770;2022-11-14T07:50:03;48.90;;;27.88;;
48849;SDS011;63210;53.370;6.770;2022-11-14T07:52:28;55.92;;;27.42;;
48849;SDS011;63210;53.370;6.770;2022-11-14T07:54:56;55.22;;;28.58;;
48849;SDS011;63210;53.370;6.770;2022-11-14T07:57:24;54.95;;;28.05;;
48849;SDS011;63210;53.370;6.770;2022-11-14T07:59:53;55.65;;;28.30;;
48849;SDS011;63210;53.370;6.770;2022-11-14T08:02:21;50.63;;;26.52;;
48849;SDS011;63210;53.370;6.770;2022-11-14T08:04:46;49.25;;;26.83;;
48849;SDS011;63210;53.370;6.770;2022-11-14T08:07:11;48.75;;;27.17;;
48849;SDS011;63210;53.370;6.770;2022-11-14T08:09:40;54.58;;;28.83;;
48849;SDS011;63210;53.370;6.770;2022-11-14T08:12:08;49.65;;;26.38;;
48849;SDS011;63210;53.370;6.770;2022-11-14T08:17:04;50.30;;;29.33;;
48849;SDS011;63210;53.370;6.770;2022-11-14T08:19:32;49.80;;;25.40;;
48849;SDS011;63210;53.370;6.770;2022-11-14T08:21:57;54.83;;;27.70;;
48849;SDS011;63210;53.370;6.770;2022-11-14T08:24:23;54.03;;;28.52;;
48849;SDS011;63210;53.370;6.770;2022-11-14T08:26:57;47.50;;;24.67;;
48849;SDS011;63210;53.370;6.770;2022-11-14T08:29:25;48.95;;;27.80;;
48849;SDS011;63210;53.370;6.770;2022-11-14T08:31:50;51.83;;;26.45;;
48849;SDS011;63210;53.370;6.770;2022-11-14T08:34:15;51.58;;;28.10;;
48849;SDS011;63210;53.370;6.770;2022-11-14T08:36:40;45.22;;;23.38;;
48849;SDS011;63210;53.370;6.770;2022-11-14T08:39:09;52.65;;;29.42;;
48849;SDS011;63210;53.370;6.770;2022-11-14T08:41:34;49.75;;;26.42;;
48849;SDS011;63210;53.370;6.770;2022-11-14T08:44:10;59.15;;;31.45;;
48849;SDS011;63210;53.370;6.770;2022-11-14T08:46:35;52.03;;;28.15;;
48849;SDS011;63210;53.370;6.770;2022-11-14T08:49:03;54.50;;;30.40;;
48849;SDS011;63210;53.370;6.770;2022-11-14T08:51:28;61.95;;;30.75;;
48849;SDS011;63210;53.370;6.770;2022-11-14T08:53:53;56.10;;;31.40;;
48849;SDS011;63210;53.370;6.770;2022-11-14T08:56:19;57.15;;;30.33;;
48849;SDS011;63210;53.370;6.770;2022-11-14T08:58:46;44.33;;;24.98;;
48849;SDS011;63210;53.370;6.770;2022-11-14T09:01:12;56.00;;;27.77;;
48849;SDS011;63210;53.370;6.770;2022-11-14T09:03:40;48.92;;;27.80;;
48849;SDS011;63210;53.370;6.770;2022-11-14T09:06:06;50.60;;;27.77;;
48849;SDS011;63210;53.370;6.770;2022-11-14T09:08:41;52.72;;;30.40;;
48849;SDS011;63210;53.370;6.770;2022-11-14T09:11:06;49.67;;;25.38;;
48849;SDS011;63210;53.370;6.770;2022-11-14T09:13:32;59.80;;;31.17;;
48849;SDS011;63210;53.370;6.770;2022-11-14T09:15:58;56.60;;;31.45;;
48849;SDS011;63210;53.370;6.770;2022-11-14T09:18:23;46.25;;;26.80;;
48849;SDS011;63210;53.370;6.770;2022-11-14T09:20:48;53.03;;;29.95;;
48849;SDS011;63210;53.370;6.770;2022-11-14T09:23:16;52.83;;;31.75;;
48849;SDS011;63210;53.370;6.770;2022-11-14T09:25:48;55.88;;;29.52;;
48849;SDS011;63210;53.370;6.770;2022-11-14T09:28:19;52.42;;;28.92;;
48849;SDS011;63210;53.370;6.770;2022-11-14T09:30:44;52.47;;;31.92;;
48849;SDS011;63210;53.370;6.770;2022-11-14T09:33:09;52.08;;;29.05;;
48849;SDS011;63210;53.370;6.770;2022-11-14T09:35:35;53.97;;;28.05;;
48849;SDS011;63210;53.370;6.770;2022-11-14T09:38:03;57.47;;;31.42;;
48849;SDS011;63210;53.370;6.770;2022-11-14T09:40:33;49.28;;;29.73;;
48849;SDS011;63210;53.370;6.770;2022-11-14T09:43:12;53.20;;;31.45;;
48849;SDS011;63210;53.370;6.770;2022-11-14T09:45:42;55.15;;;29.60;;
48849;SDS011;63210;53.370;6.770;2022-11-14T09:48:15;48.05;;;30.55;;
48849;SDS011;63210;53.370;6.770;2022-11-14T09:53:19;51.27;;;31.57;;
48849;SDS011;63210;53.370;6.770;2022-11-14T09:55:49;54.95;;;30.95;;
48849;SDS011;63210;53.370;6.770;2022-11-14T09:58:17;50.70;;;26.98;;
48849;SDS011;63210;53.370;6.770;2022-11-14T10:03:28;57.38;;;31.65;;
48849;SDS011;63210;53.370;6.770;2022-11-14T10:06:03;52.70;;;33.38;;
48849;SDS011;63210;53.370;6.770;2022-11-14T10:16:03;41.35;;;25.15;;
48849;SDS011;63210;53.370;6.770;2022-11-14T10:24:03;54.25;;;32.17;;
48849;SDS011;63210;53.370;6.770;2022-11-14T10:26:29;50.88;;;30.52;;
48849;SDS011;63210;53.370;6.770;2022-11-14T10:29:10;51.00;;;29.13;;
48849;SDS011;63210;53.370;6.770;2022-11-14T10:31:43;50.28;;;27.45;;
48849;SDS011;63210;53.370;6.770;2022-11-14T10:44:58;53.08;;;31.52;;
48849;SDS011;63210;53.370;6.770;2022-11-14T10:47:26;51.63;;;27.35;;
48849;SDS011;63210;53.370;6.770;2022-11-14T10:49:54;49.75;;;30.23;;
48849;SDS011;63210;53.370;6.770;2022-11-14T10:52:21;47.60;;;27.88;;
48849;SDS011;63210;53.370;6.770;2022-11-14T10:54:50;51.50;;;26.45;;
48849;SDS011;63210;53.370;6.770;2022-11-14T10:57:20;51.00;;;31.98;;
48849;SDS011;63210;53.370;6.770;2022-11-14T10:59:45;48.17;;;29.42;;
48849;SDS011;63210;53.370;6.770;2022-11-14T11:02:20;50.95;;;28.17;;
48849;SDS011;63210;53.370;6.770;2022-11-14T11:04:45;45.42;;;27.80;;
48849;SDS011;63210;53.370;6.770;2022-11-14T11:10:03;51.05;;;28.60;;
48849;SDS011;63210;53.370;6.770;2022-11-14T11:12:48;45.50;;;27.30;;
48849;SDS011;63210;53.370;6.770;2022-11-14T11:17:53;48.08;;;27.27;;
48849;SDS011;63210;53.370;6.770;2022-11-14T11:20:35;45.92;;;27.85;;
48849;SDS011;63210;53.370;6.770;2022-11-14T11:23:04;45.88;;;27.52;;
48849;SDS011;63210;53.370;6.770;2022-11-14T11:25:30;45.05;;;28.42;;
48849;SDS011;63210;53.370;6.770;2022-11-14T11:33:26;43.20;;;26.65;;
48849;SDS011;63210;53.370;6.770;2022-11-14T11:35:56;43.70;;;25.33;;
48849;SDS011;63210;53.370;6.770;2022-11-14T11:38:34;43.00;;;26.87;;
48849;SDS011;63210;53.370;6.770;2022-11-14T11:41:20;44.67;;;30.40;;
48849;SDS011;63210;53.370;6.770;2022-11-14T11:44:00;37.38;;;20.73;;
48849;SDS011;63210;53.370;6.770;2022-11-14T11:48:55;41.15;;;23.80;;
48849;SDS011;63210;53.370;6.770;2022-11-14T11:53:59;41.10;;;26.30;;
48849;SDS011;63210;53.370;6.770;2022-11-14T11:56:29;41.50;;;26.58;;
48849;SDS011;63210;53.370;6.770;2022-11-14T11:58:56;47.45;;;27.98;;
48849;SDS011;63210;53.370;6.770;2022-11-14T12:01:26;46.75;;;27.05;;
48849;SDS011;63210;53.370;6.770;2022-11-14T12:04:04;50.85;;;30.15;;
48849;SDS011;63210;53.370;6.770;2022-11-14T12:06:34;45.78;;;25.80;;
48849;SDS011;63210;53.370;6.770;2022-11-14T12:11:35;50.90;;;30.45;;
48849;SDS011;63210;53.370;6.770;2022-11-14T12:14:09;44.65;;;26.95;;
48849;SDS011;63210;53.370;6.770;2022-11-14T12:31:46;47.83;;;29.27;;
48849;SDS011;63210;53.370;6.770;2022-11-14T12:36:58;44.72;;;28.13;;
48849;SDS011;63210;53.370;6.770;2022-11-14T12:39:24;45.60;;;27.42;;
48849;SDS011;63210;53.370;6.770;2022-11-14T12:41:50;46.25;;;28.48;;
48849;SDS011;63210;53.370;6.770;2022-11-14T12:49:37;44.80;;;24.83;;
48849;SDS011;63210;53.370;6.770;2022-11-14T12:52:11;49.63;;;28.90;;
48849;SDS011;63210;53.370;6.770;2022-11-14T12:54:51;47.83;;;26.25;;
48849;SDS011;63210;53.370;6.770;2022-11-14T13:00:15;41.40;;;25.60;;
48849;SDS011;63210;53.370;6.770;2022-11-14T13:05:14;38.22;;;23.55;;
48849;SDS011;63210;53.370;6.770;2022-11-14T13:07:55;39.20;;;24.10;;
48849;SDS011;63210;53.370;6.770;2022-11-14T13:10:38;39.40;;;22.27;;
48849;SDS011;63210;53.370;6.770;2022-11-14T13:13:10;43.22;;;27.30;;
48849;SDS011;63210;53.370;6.770;2022-11-14T13:16:03;38.78;;;23.67;;
48849;SDS011;63210;53.370;6.770;2022-11-14T13:18:51;37.78;;;19.88;;
48849;SDS011;63210;53.370;6.770;2022-11-14T13:24:24;40.33;;;23.75;;
48849;SDS011;63210;53.370;6.770;2022-11-14T13:26:53;35.50;;;23.13;;
48849;SDS011;63210;53.370;6.770;2022-11-14T13:32:03;41.28;;;23.67;;
48849;SDS011;63210;53.370;6.770;2022-11-14T13:49:59;34.88;;;22.17;;
48849;SDS011;63210;53.370;6.770;2022-11-14T13:52:27;35.17;;;21.25;;
48849;SDS011;63210;53.370;6.770;2022-11-14T13:54:53;40.42;;;22.23;;
48849;SDS011;63210;53.370;6.770;2022-11-14T13:57:23;35.90;;;20.65;;
48849;SDS011;63210;53.370;6.770;2022-11-14T14:05:37;35.53;;;21.73;;
48849;SDS011;63210;53.370;6.770;2022-11-14T14:10:58;36.90;;;21.85;;
48849;SDS011;63210;53.370;6.770;2022-11-14T14:19:02;37.05;;;22.92;;
48849;SDS011;63210;53.370;6.770;2022-11-14T14:29:19;36.92;;;21.55;;
48849;SDS011;63210;53.370;6.770;2022-11-14T14:31:46;34.17;;;21.05;;
48849;SDS011;63210;53.370;6.770;2022-11-14T14:34:28;40.55;;;22.50;;
48849;SDS011;63210;53.370;6.770;2022-11-14T14:36:56;36.67;;;22.67;;
48849;SDS011;63210;53.370;6.770;2022-11-14T14:39:28;36.72;;;22.98;;
48849;SDS011;63210;53.370;6.770;2022-11-14T14:41:56;37.42;;;22.25;;
48849;SDS011;63210;53.370;6.770;2022-11-14T14:44:29;34.28;;;20.38;;
48849;SDS011;63210;53.370;6.770;2022-11-14T14:46:58;34.55;;;20.70;;
48849;SDS011;63210;53.370;6.770;2022-11-14T14:49:33;32.38;;;20.05;;
48849;SDS011;63210;53.370;6.770;2022-11-14T14:51:59;32.80;;;21.88;;
48849;SDS011;63210;53.370;6.770;2022-11-14T14:54:27;35.35;;;22.05;;
48849;SDS011;63210;53.370;6.770;2022-11-14T14:56:57;35.10;;;20.77;;
48849;SDS011;63210;53.370;6.770;2022-11-14T14:59:32;34.22;;;21.75;;
48849;SDS011;63210;53.370;6.770;2022-11-14T15:02:16;32.53;;;20.90;;
48849;SDS011;63210;53.370;6.770;2022-11-14T15:04:42;32.55;;;20.75;;
48849;SDS011;63210;53.370;6.770;2022-11-14T15:07:21;34.45;;;21.90;;
48849;SDS011;63210;53.370;6.770;2022-11-14T15:09:54;33.40;;;21.15;;
48849;SDS011;63210;53.370;6.770;2022-11-14T15:12:20;33.63;;;20.63;;
48849;SDS011;63210;53.370;6.770;2022-11-14T15:14:55;37.78;;;23.00;;
48849;SDS011;63210;53.370;6.770;2022-11-14T15:17:21;33.08;;;21.58;;
48849;SDS011;63210;53.370;6.770;2022-11-14T15:19:50;33.00;;;20.70;;
48849;SDS011;63210;53.370;6.770;2022-11-14T15:24:41;33.67;;;20.70;;
48849;SDS011;63210;53.370;6.770;2022-11-14T15:29:35;35.08;;;21.02;;
48849;SDS011;63210;53.370;6.770;2022-11-14T15:32:19;35.55;;;20.35;;
48849;SDS011;63210;53.370;6.770;2022-11-14T15:37:31;34.17;;;21.88;;
48849;SDS011;63210;53.370;6.770;2022-11-14T15:40:20;33.22;;;20.95;;
48849;SDS011;63210;53.370;6.770;2022-11-14T15:42:48;33.25;;;21.25;;
48849;SDS011;63210;53.370;6.770;2022-11-14T15:45:27;35.67;;;21.95;;
48849;SDS011;63210;53.370;6.770;2022-11-14T15:48:00;35.95;;;20.50;;
48849;SDS011;63210;53.370;6.770;2022-11-14T15:52:56;34.10;;;20.47;;
48849;SDS011;63210;53.370;6.770;2022-11-14T15:55:22;34.25;;;20.15;;
48849;SDS011;63210;53.370;6.770;2022-11-14T15:57:48;35.70;;;22.27;;
48849;SDS011;63210;53.370;6.770;2022-11-14T16:00:14;34.67;;;21.65;;
48849;SDS011;63210;53.370;6.770;2022-11-14T16:02:43;33.45;;;21.08;;
48849;SDS011;63210;53.370;6.770;2022-11-14T16:05:13;35.40;;;21.20;;
48849;SDS011;63210;53.370;6.770;2022-11-14T16:07:39;30.55;;;19.48;;
48849;SDS011;63210;53.370;6.770;2022-11-14T16:10:16;37.15;;;20.83;;
48849;SDS011;63210;53.370;6.770;2022-11-14T16:12:42;34.03;;;20.42;;
48849;SDS011;63210;53.370;6.770;2022-11-14T16:15:07;31.90;;;20.13;;
48849;SDS011;63210;53.370;6.770;2022-11-14T16:17:36;33.75;;;21.17;;
48849;SDS011;63210;53.370;6.770;2022-11-14T16:20:03;32.10;;;19.77;;
48849;SDS011;63210;53.370;6.770;2022-11-14T16:22:29;33.00;;;19.77;;
48849;SDS011;63210;53.370;6.770;2022-11-14T16:25:04;36.90;;;21.33;;
48849;SDS011;63210;53.370;6.770;2022-11-14T16:27:33;34.70;;;20.52;;
48849;SDS011;63210;53.370;6.770;2022-11-14T16:29:59;35.45;;;20.80;;
48849;SDS011;63210;53.370;6.770;2022-11-14T16:32:27;31.02;;;19.63;;
48849;SDS011;63210;53.370;6.770;2022-11-14T16:34:52;35.72;;;21.02;;
48849;SDS011;63210;53.370;6.770;2022-11-14T16:37:18;34.22;;;21.95;;
48849;SDS011;63210;53.370;6.770;2022-11-14T16:39:43;34.95;;;20.95;;
48849;SDS011;63210;53.370;6.770;2022-11-14T16:42:09;31.45;;;19.58;;
48849;SDS011;63210;53.370;6.770;2022-11-14T16:44:41;35.38;;;21.15;;
48849;SDS011;63210;53.370;6.770;2022-11-14T16:47:08;34.97;;;19.63;;